createdAt,value
2023-02-05T00:01:53.338Z,29.50
2023-02-05T00:04:21.491Z,32.13
2023-02-05T00:06:49.631Z,33.00
2023-02-05T00:09:17.755Z,27.20
2023-02-05T00:11:45.908Z,30.30
2023-02-05T00:14:14.047Z,27.63
2023-02-05T00:16:42.224Z,28.83
2023-02-05T00:19:11.753Z,25.53
2023-02-05T00:21:39.955Z,25.33
2023-02-05T00:24:08.564Z,34.90
2023-02-05T00:26:36.701Z,29.27
2023-02-05T00:29:05.050Z,29.93
2023-02-05T00:31:33.355Z,28.93
2023-02-05T00:34:01.570Z,28.80
2023-02-05T00:36:31.108Z,27.60
2023-02-05T00:38:59.258Z,29.43
2023-02-05T00:41:27.433Z,28.43
2023-02-05T00:43:55.594Z,26.47
2023-02-05T00:46:23.812Z,25.40
2023-02-05T00:48:51.998Z,25.73
2023-02-05T00:51:20.121Z,27.67
2023-02-05T00:53:49.621Z,30.53
2023-02-05T00:56:17.960Z,23.87
2023-02-05T00:58:47.835Z,26.43
2023-02-05T01:01:16.560Z,24.63
2023-02-05T01:03:44.946Z,25.10
2023-02-05T01:06:13.062Z,21.43
2023-02-05T01:08:41.274Z,21.07
2023-02-05T01:11:11.309Z,19.77
2023-02-05T01:13:39.844Z,21.53
2023-02-05T01:16:10.485Z,17.73
2023-02-05T01:18:38.660Z,21.23
2023-02-05T01:21:06.972Z,16.57
2023-02-05T01:23:35.141Z,16.87
2023-02-05T01:26:03.332Z,19.23
2023-02-05T01:28:32.853Z,18.20
2023-02-05T01:31:01.064Z,22.63
2023-02-05T01:33:29.363Z,24.53
2023-02-05T01:35:57.510Z,19.60
2023-02-05T01:38:25.688Z,22.07
2023-02-05T01:40:53.959Z,27.27
2023-02-05T01:43:22.149Z,29.73
2023-02-05T01:46:08.457Z,36.30
2023-02-05T01:48:38.246Z,29.20
2023-02-05T01:51:08.056Z,40.00
2023-02-05T01:53:38.015Z,33.87
2023-02-05T01:56:07.958Z,36.90
2023-02-05T01:58:39.274Z,35.13
2023-02-05T02:01:08.990Z,35.40
2023-02-05T02:03:37.244Z,42.03
2023-02-05T02:06:05.557Z,44.47
2023-02-05T02:08:33.756Z,47.00
2023-02-05T02:11:04.089Z,44.83
2023-02-05T02:13:33.071Z,49.63
2023-02-05T02:16:01.679Z,44.97
2023-02-05T02:18:31.704Z,49.63
2023-02-05T02:21:11.290Z,49.80
2023-02-05T02:23:41.982Z,51.97
2023-02-05T02:26:23.178Z,53.43
2023-02-05T02:28:53.387Z,51.90
2023-02-05T02:31:24.184Z,54.40
2023-02-05T02:33:53.807Z,53.63
2023-02-05T02:36:24.000Z,56.97
2023-02-05T02:38:54.691Z,48.77
2023-02-05T02:41:26.847Z,57.33
2023-02-05T02:43:58.444Z,57.60
2023-02-05T02:46:29.221Z,57.43
2023-02-05T02:48:59.233Z,51.63
2023-02-05T02:51:29.153Z,56.83
2023-02-05T02:53:58.382Z,58.13
2023-02-05T02:56:27.797Z,59.40
2023-02-05T02:58:59.470Z,57.20
2023-02-05T03:01:29.139Z,58.83
2023-02-05T03:04:00.149Z,56.03
2023-02-05T03:06:28.626Z,60.70
2023-02-05T03:08:59.152Z,62.17
2023-02-05T03:11:27.634Z,61.70
2023-02-05T03:13:58.228Z,60.80
2023-02-05T03:16:28.181Z,62.90
2023-02-05T03:18:56.949Z,61.13
2023-02-05T03:21:27.092Z,60.73
2023-02-05T03:23:55.226Z,57.57
2023-02-05T03:26:27.597Z,59.13
2023-02-05T03:28:56.179Z,60.83
2023-02-05T03:31:27.514Z,58.60
2023-02-05T03:34:03.925Z,61.23
2023-02-05T03:36:37.675Z,62.73
2023-02-05T03:39:11.747Z,62.67
2023-02-05T03:41:58.693Z,56.00
2023-02-05T03:44:38.644Z,62.33
2023-02-05T03:47:11.079Z,60.30
2023-02-05T03:49:43.803Z,59.47
2023-02-05T03:52:14.172Z,54.07
2023-02-05T03:54:45.592Z,57.53
2023-02-05T03:57:20.281Z,53.77
2023-02-05T03:59:49.018Z,52.17
2023-02-05T04:02:19.033Z,50.63
2023-02-05T04:04:47.197Z,55.07
2023-02-05T04:07:15.567Z,51.20
2023-02-05T04:09:43.733Z,57.97
2023-02-05T04:12:11.942Z,54.83
2023-02-05T04:14:40.124Z,56.40
2023-02-05T04:17:08.567Z,51.90
2023-02-05T04:19:38.123Z,59.43
2023-02-05T04:22:06.259Z,53.07
2023-02-05T04:24:34.405Z,61.50
2023-02-05T04:27:02.579Z,56.57
2023-02-05T04:29:30.737Z,55.80
2023-02-05T04:31:58.934Z,61.97
2023-02-05T04:34:27.086Z,61.50
2023-02-05T04:36:56.560Z,60.47
2023-02-05T04:39:24.700Z,61.77
2023-02-05T04:41:52.923Z,58.47
2023-02-05T04:44:21.116Z,61.63
2023-02-05T04:46:49.276Z,64.33
2023-02-05T04:49:17.448Z,64.83
2023-02-05T04:51:45.588Z,65.47
2023-02-05T04:54:15.061Z,61.63
2023-02-05T04:56:43.507Z,58.57
2023-02-05T04:59:11.650Z,56.17
2023-02-05T05:01:40.625Z,56.50
2023-02-05T05:04:08.823Z,57.20
2023-02-05T05:06:36.997Z,51.97
2023-02-05T05:09:05.339Z,52.73
2023-02-05T05:11:34.856Z,47.30
2023-02-05T05:14:02.987Z,55.57
2023-02-05T05:16:31.167Z,51.77
2023-02-05T05:18:59.312Z,51.00
2023-02-05T05:21:27.468Z,45.50
2023-02-05T05:23:55.625Z,46.73
2023-02-05T05:26:23.860Z,50.83
2023-02-05T05:28:55.808Z,48.73
2023-02-05T05:31:24.541Z,49.60
2023-02-05T05:33:52.864Z,48.67
2023-02-05T05:36:21.085Z,46.57
2023-02-05T05:38:49.231Z,45.63
2023-02-05T05:41:37.449Z,45.90
2023-02-05T05:44:07.031Z,49.97
2023-02-05T05:46:35.180Z,48.20
2023-02-05T05:49:04.173Z,45.70
2023-02-05T05:51:33.566Z,50.07
2023-02-05T05:54:01.717Z,49.77
2023-02-05T05:56:30.006Z,46.13
2023-02-05T05:58:58.179Z,50.40
2023-02-05T06:01:27.712Z,49.40
2023-02-05T06:03:55.887Z,48.57
2023-02-05T06:06:24.085Z,53.90
2023-02-05T06:08:52.265Z,43.33
2023-02-05T06:11:20.390Z,47.20
2023-02-05T06:13:48.545Z,45.93
2023-02-05T06:16:16.818Z,41.33
2023-02-05T06:18:46.382Z,39.93
2023-02-05T06:21:14.611Z,41.60
2023-02-05T06:23:42.840Z,48.30
2023-02-05T06:26:10.995Z,42.67
2023-02-05T06:28:39.184Z,45.77
2023-02-05T06:31:07.403Z,40.67
2023-02-05T06:33:35.609Z,34.30
2023-02-05T06:36:05.345Z,35.20
2023-02-05T06:38:33.560Z,37.13
2023-02-05T06:41:01.697Z,34.97
2023-02-05T06:43:29.863Z,34.87
2023-02-05T06:45:58.032Z,35.60
2023-02-05T06:48:26.205Z,34.80
2023-02-05T06:50:54.332Z,32.20
2023-02-05T06:53:23.816Z,32.57
2023-02-05T06:55:51.954Z,34.37
2023-02-05T06:58:20.100Z,36.37
2023-02-05T07:00:48.234Z,39.67
2023-02-05T07:03:16.371Z,35.60
2023-02-05T07:05:44.518Z,40.53
2023-02-05T07:08:12.698Z,35.47
2023-02-05T07:10:42.193Z,35.50
2023-02-05T07:13:10.356Z,40.57
2023-02-05T07:15:38.572Z,35.63
2023-02-05T07:18:06.769Z,35.90
2023-02-05T07:20:34.937Z,36.33
2023-02-05T07:23:03.078Z,37.53
2023-02-05T07:25:36.327Z,35.97
2023-02-05T07:28:06.331Z,34.53
2023-02-05T07:30:34.565Z,32.43
2023-02-05T07:33:03.477Z,31.77
2023-02-05T07:35:32.098Z,31.10
2023-02-05T07:38:00.503Z,30.00
2023-02-05T07:40:28.667Z,30.20
2023-02-05T07:42:56.814Z,28.23
2023-02-05T07:45:26.331Z,27.90
2023-02-05T07:47:54.788Z,29.07
2023-02-05T07:50:22.958Z,22.67
2023-02-05T07:52:51.082Z,29.43
2023-02-05T07:55:19.345Z,24.17
2023-02-05T07:57:47.572Z,20.37
2023-02-05T08:00:15.932Z,22.63
2023-02-05T08:02:45.497Z,18.80
2023-02-05T08:05:13.665Z,19.67
2023-02-05T08:07:41.805Z,22.30
2023-02-05T08:10:11.385Z,20.60
2023-02-05T08:12:39.516Z,21.23
2023-02-05T08:15:07.844Z,44.33
2023-02-05T08:17:36.022Z,45.73
2023-02-05T08:20:07.605Z,17.70
2023-02-05T08:22:36.374Z,18.23
2023-02-05T08:25:06.059Z,17.80
2023-02-05T08:27:34.228Z,20.87
2023-02-05T08:30:02.422Z,15.33
2023-02-05T08:32:30.565Z,14.33
2023-02-05T08:34:59.262Z,11.03
2023-02-05T08:37:29.106Z,9.63
2023-02-05T08:39:57.239Z,5.30
2023-02-05T08:42:25.509Z,5.13
2023-02-05T08:44:55.976Z,4.77
2023-02-05T08:47:24.128Z,5.70
2023-02-05T08:49:52.327Z,3.83
2023-02-05T08:52:20.528Z,6.80
2023-02-05T08:54:50.021Z,5.67
2023-02-05T08:57:18.236Z,4.13
2023-02-05T08:59:46.369Z,5.03
2023-02-05T09:02:15.958Z,5.03
2023-02-05T09:04:44.349Z,4.57
2023-02-05T09:07:12.564Z,2.83
2023-02-05T09:09:40.714Z,2.70
2023-02-05T09:12:10.636Z,2.27
2023-02-05T09:14:38.820Z,5.93
2023-02-05T09:17:07.506Z,3.57
2023-02-05T09:19:35.814Z,3.20
2023-02-05T09:22:03.966Z,4.63
2023-02-05T09:24:32.105Z,6.00
2023-02-05T09:27:00.277Z,6.63
2023-02-05T09:29:30.195Z,7.90
2023-02-05T09:31:59.021Z,7.37
2023-02-05T09:34:27.146Z,2.23
2023-02-05T09:36:55.300Z,5.13
2023-02-05T09:40:01.897Z,6.33
2023-02-05T09:42:16.966Z,4.83
2023-02-05T09:44:54.389Z,3.10
2023-02-05T09:47:25.166Z,6.90
2023-02-05T09:49:57.202Z,5.43
2023-02-05T09:52:28.593Z,9.50
2023-02-05T09:54:59.579Z,4.03
2023-02-05T09:57:32.438Z,6.03
2023-02-05T10:00:01.994Z,6.90
2023-02-05T10:02:33.337Z,14.30
2023-02-05T10:05:01.513Z,7.87
2023-02-05T10:07:39.743Z,11.40
2023-02-05T10:10:28.818Z,4.47
2023-02-05T10:13:05.406Z,3.67
2023-02-05T10:15:43.312Z,8.17
2023-02-05T10:18:15.747Z,8.77
2023-02-05T10:20:48.582Z,8.97
2023-02-05T10:23:17.913Z,12.30
2023-02-05T10:25:54.168Z,9.60
2023-02-05T10:28:33.863Z,8.23
2023-02-05T10:31:08.432Z,8.47
2023-02-05T10:33:42.703Z,8.03
2023-02-05T10:36:11.591Z,8.03
2023-02-05T10:38:42.717Z,9.63
2023-02-05T10:41:16.275Z,16.27
2023-02-05T10:43:46.882Z,10.33
2023-02-05T10:46:17.336Z,12.10
2023-02-05T10:48:46.800Z,11.67
2023-02-05T10:51:17.107Z,9.27
2023-02-05T10:53:45.523Z,9.27
2023-02-05T10:56:17.611Z,13.97
2023-02-05T10:58:47.828Z,8.90
2023-02-05T11:01:18.721Z,14.13
2023-02-05T11:03:50.723Z,6.47
2023-02-05T11:06:19.329Z,6.77
2023-02-05T11:08:48.829Z,7.13
2023-02-05T11:11:24.605Z,6.73
2023-02-05T11:13:55.347Z,9.37
2023-02-05T11:16:25.659Z,15.90
2023-02-05T11:18:58.456Z,11.67
2023-02-05T11:21:46.440Z,9.70
2023-02-05T11:24:23.231Z,8.97
2023-02-05T11:26:51.473Z,8.60
2023-02-05T11:29:25.269Z,17.03
2023-02-05T11:31:55.191Z,8.13
2023-02-05T11:34:23.632Z,9.60
2023-02-05T11:36:53.287Z,12.93
2023-02-05T11:39:30.008Z,17.57
2023-02-05T11:41:59.228Z,13.37
2023-02-05T11:44:30.246Z,9.90
2023-02-05T11:47:01.480Z,13.23
2023-02-05T11:49:32.971Z,16.37
2023-02-05T11:52:02.182Z,15.07
2023-02-05T11:54:32.321Z,16.83
2023-02-05T11:57:05.040Z,10.40
2023-02-05T11:59:33.807Z,18.53
2023-02-05T12:02:22.002Z,14.33
2023-02-05T12:04:52.411Z,16.40
2023-02-05T12:07:21.466Z,9.20
2023-02-05T12:09:49.627Z,10.10
2023-02-05T12:12:21.467Z,15.43
2023-02-05T12:14:51.790Z,16.20
2023-02-05T12:17:34.899Z,12.80
2023-02-05T12:20:11.616Z,12.53
2023-02-05T12:22:47.897Z,16.20
2023-02-05T12:25:18.340Z,16.13
2023-02-05T12:27:57.128Z,18.93
2023-02-05T12:30:31.714Z,21.40
2023-02-05T12:33:05.567Z,17.10
2023-02-05T12:35:41.226Z,20.17
2023-02-05T12:38:21.107Z,16.40
2023-02-05T12:40:58.282Z,17.13
2023-02-05T12:43:32.318Z,18.70
2023-02-05T12:46:04.773Z,17.50
2023-02-05T12:48:42.124Z,13.33
2023-02-05T12:51:21.604Z,14.67
2023-02-05T12:53:58.159Z,14.67
2023-02-05T12:56:37.751Z,13.50
2023-02-05T12:59:12.417Z,11.93
2023-02-05T13:01:42.170Z,15.03
2023-02-05T13:04:16.789Z,19.63
2023-02-05T13:06:49.088Z,13.53
2023-02-05T13:09:20.153Z,15.17
2023-02-05T13:11:56.726Z,15.50
2023-02-05T13:14:27.344Z,16.70
2023-02-05T13:16:56.828Z,17.60
2023-02-05T13:19:27.447Z,15.03
2023-02-05T13:22:30.694Z,14.83
2023-02-05T13:25:21.073Z,18.40
2023-02-05T13:28:13.221Z,13.23
2023-02-05T13:30:43.974Z,15.57
2023-02-05T13:33:12.155Z,12.93
2023-02-05T13:35:43.207Z,15.83
2023-02-05T13:38:22.783Z,11.73
2023-02-05T13:41:08.834Z,12.70
2023-02-05T13:43:44.913Z,5.90
2023-02-05T13:46:25.020Z,8.53
2023-02-05T13:49:08.057Z,8.93
2023-02-05T13:51:43.140Z,15.47
2023-02-05T13:54:24.666Z,7.87
2023-02-05T13:56:58.518Z,14.87
2023-02-05T13:59:30.507Z,12.87
2023-02-05T14:02:00.810Z,11.80
2023-02-05T14:04:30.911Z,16.33
2023-02-05T14:07:00.571Z,11.77
2023-02-05T14:09:34.668Z,13.03
2023-02-05T14:12:04.646Z,11.67
2023-02-05T14:14:34.870Z,12.33
2023-02-05T14:17:03.887Z,11.77
2023-02-05T14:19:56.031Z,17.23
2023-02-05T14:22:42.192Z,9.83
2023-02-05T14:25:25.281Z,9.33
2023-02-05T14:27:55.749Z,16.57
2023-02-05T14:30:44.811Z,16.43
2023-02-05T14:33:27.940Z,9.90
2023-02-05T14:35:57.192Z,11.97
2023-02-05T14:38:26.238Z,18.60
2023-02-05T14:41:05.045Z,15.67
2023-02-05T14:43:36.459Z,13.70
2023-02-05T14:46:07.227Z,18.57
2023-02-05T14:48:37.084Z,21.67
2023-02-05T14:51:06.496Z,19.73
2023-02-05T14:53:36.299Z,11.00
2023-02-05T14:56:05.558Z,12.43
2023-02-05T14:58:38.370Z,23.93
2023-02-05T15:01:30.557Z,17.63
2023-02-05T15:03:59.615Z,19.50
2023-02-05T15:06:29.876Z,24.67
2023-02-05T15:09:02.925Z,15.07
2023-02-05T15:11:37.433Z,15.63
2023-02-05T15:14:25.413Z,18.37
2023-02-05T15:17:09.931Z,12.87
2023-02-05T15:19:43.331Z,21.23
2023-02-05T15:22:15.010Z,17.97
2023-02-05T15:24:43.979Z,21.03
2023-02-05T15:27:16.219Z,19.23
2023-02-05T15:29:46.224Z,12.60
2023-02-05T15:32:19.068Z,11.97
2023-02-05T15:34:51.536Z,14.13
2023-02-05T15:37:22.846Z,11.60
2023-02-05T15:39:53.458Z,15.00
2023-02-05T15:42:22.468Z,14.50
2023-02-05T15:44:50.616Z,12.80
2023-02-05T15:47:20.200Z,12.00
2023-02-05T15:49:52.832Z,14.53
2023-02-05T15:52:23.002Z,14.80
2023-02-05T15:54:51.670Z,16.43
2023-02-05T15:57:21.217Z,19.10
2023-02-05T15:59:51.117Z,15.93
2023-02-05T16:02:21.241Z,15.27
2023-02-05T16:04:55.761Z,18.43
2023-02-05T16:07:24.820Z,12.10
2023-02-05T16:09:54.185Z,25.97
2023-02-05T16:12:22.351Z,11.63
2023-02-05T16:14:59.142Z,10.97
2023-02-05T16:17:29.963Z,15.83
2023-02-05T16:20:05.422Z,12.17
2023-02-05T16:22:36.892Z,13.57
2023-02-05T16:25:08.999Z,12.97
2023-02-05T16:27:41.209Z,21.77
2023-02-05T16:30:14.039Z,15.77
2023-02-05T16:32:43.307Z,14.80
2023-02-05T16:35:20.249Z,12.87
2023-02-05T16:37:48.505Z,16.07
2023-02-05T16:40:16.792Z,19.37
2023-02-05T16:42:46.137Z,18.90
2023-02-05T16:45:21.811Z,17.30
2023-02-05T16:48:08.681Z,15.50
2023-02-05T16:50:42.768Z,13.77
2023-02-05T16:53:15.136Z,21.20
2023-02-05T16:55:44.518Z,14.40
2023-02-05T16:58:16.840Z,21.17
2023-02-05T17:00:52.526Z,19.37
2023-02-05T17:03:21.245Z,20.70
2023-02-05T17:05:55.977Z,18.60
2023-02-05T17:08:32.263Z,16.13
2023-02-05T17:11:01.376Z,16.80
2023-02-05T17:13:38.816Z,20.50
2023-02-05T17:16:26.805Z,13.33
2023-02-05T17:18:55.852Z,19.70
2023-02-05T17:21:26.681Z,23.63
2023-02-05T17:23:56.823Z,19.27
2023-02-05T17:26:25.582Z,13.90
2023-02-05T17:28:54.510Z,21.13
2023-02-05T17:31:26.116Z,15.93
2023-02-05T17:33:54.913Z,18.47
2023-02-05T17:36:23.185Z,12.90
2023-02-05T17:38:52.946Z,16.27
2023-02-05T17:41:39.648Z,17.83
2023-02-05T17:44:08.532Z,17.93
2023-02-05T17:46:36.741Z,15.17
2023-02-05T17:49:04.919Z,21.23
2023-02-05T17:51:33.106Z,17.67
2023-02-05T17:54:02.837Z,19.93
2023-02-05T17:56:31.017Z,14.90
2023-02-05T17:58:59.793Z,22.93
2023-02-05T18:01:27.953Z,17.37
2023-02-05T18:03:56.128Z,18.77
2023-02-05T18:06:24.293Z,19.87
2023-02-05T18:08:52.409Z,22.13
2023-02-05T18:11:21.884Z,18.30
2023-02-05T18:13:50.046Z,17.30
2023-02-05T18:16:18.655Z,23.10
2023-02-05T18:18:47.419Z,17.17
2023-02-05T18:21:15.577Z,15.47
2023-02-05T18:23:43.917Z,22.77
2023-02-05T18:26:12.103Z,27.53
2023-02-05T18:28:41.584Z,18.40
2023-02-05T18:31:11.330Z,16.00
2023-02-05T18:33:39.537Z,18.37
2023-02-05T18:36:09.421Z,21.33
2023-02-05T18:38:37.629Z,20.57
2023-02-05T18:41:06.487Z,17.10
2023-02-05T18:43:36.252Z,20.97
2023-02-05T18:46:09.782Z,26.27
2023-02-05T18:48:38.207Z,14.80
2023-02-05T18:51:06.877Z,18.53
2023-02-05T18:53:35.741Z,12.30
2023-02-05T18:56:04.273Z,22.17
2023-02-05T18:58:32.431Z,14.77
2023-02-05T19:01:02.853Z,11.97
2023-02-05T19:03:32.422Z,19.60
2023-02-05T19:06:04.712Z,18.83
2023-02-05T19:08:32.857Z,23.23
2023-02-05T19:11:01.227Z,17.67
2023-02-05T19:13:29.374Z,13.63
2023-02-05T19:15:57.555Z,18.10
2023-02-05T19:18:25.721Z,15.17
2023-02-05T19:20:55.189Z,19.13
2023-02-05T19:23:23.314Z,19.70
2023-02-05T19:25:51.581Z,21.07
2023-02-05T19:28:19.822Z,21.80
2023-02-05T19:30:48.133Z,19.97
2023-02-05T19:33:16.316Z,16.00
2023-02-05T19:35:44.462Z,20.70
2023-02-05T19:38:13.963Z,16.77
2023-02-05T19:40:42.116Z,14.87
2023-02-05T19:43:10.281Z,22.63
2023-02-05T19:45:38.564Z,18.13
2023-02-05T19:48:06.822Z,16.17
2023-02-05T19:50:35.726Z,27.70
2023-02-05T19:53:04.102Z,16.67
2023-02-05T19:55:34.448Z,16.83
2023-02-05T19:58:02.597Z,24.73
2023-02-05T20:00:30.813Z,23.53
2023-02-05T20:03:05.099Z,15.27
2023-02-05T20:05:33.369Z,21.50
2023-02-05T20:08:01.485Z,20.43
2023-02-05T20:10:29.614Z,19.40
2023-02-05T20:13:00.298Z,19.57
2023-02-05T20:15:28.444Z,22.30
2023-02-05T20:17:58.513Z,19.73
2023-02-05T20:20:33.542Z,19.23
2023-02-05T20:23:02.141Z,19.97
2023-02-05T20:25:30.290Z,20.40
2023-02-05T20:27:59.824Z,14.87
2023-02-05T20:30:45.459Z,17.33
2023-02-05T20:33:13.616Z,20.13
2023-02-05T20:35:41.770Z,28.07
2023-02-05T20:38:10.420Z,24.20
2023-02-05T20:40:39.203Z,20.27
2023-02-05T20:43:09.126Z,20.23
2023-02-05T20:45:37.318Z,26.43
2023-02-05T20:48:05.659Z,19.57
2023-02-05T20:50:35.360Z,25.77
2023-02-05T20:53:03.659Z,20.63
2023-02-05T20:55:31.792Z,18.10
2023-02-05T20:57:59.959Z,25.43
2023-02-05T21:00:29.947Z,25.07
2023-02-05T21:02:58.129Z,23.70
2023-02-05T21:05:26.313Z,24.23
2023-02-05T21:07:54.985Z,23.33
2023-02-05T21:10:23.163Z,28.37
2023-02-05T21:12:51.370Z,21.90
2023-02-05T21:15:19.517Z,23.37
2023-02-05T21:17:48.966Z,28.30
2023-02-05T21:20:17.399Z,29.50
2023-02-05T21:22:45.572Z,26.73
2023-02-05T21:25:13.721Z,22.30
2023-02-05T21:27:43.205Z,16.70
2023-02-05T21:30:12.212Z,20.47
2023-02-05T21:32:40.366Z,18.60
2023-02-05T21:35:10.144Z,23.17
2023-02-05T21:37:39.732Z,19.13
2023-02-05T21:40:09.594Z,20.63
2023-02-05T21:42:38.065Z,28.77
2023-02-05T21:45:06.500Z,18.53
2023-02-05T21:47:34.655Z,22.77
2023-02-05T21:50:02.801Z,28.90
2023-02-05T21:52:32.384Z,20.60
2023-02-05T21:55:00.537Z,25.13
2023-02-05T21:57:28.694Z,22.87
2023-02-05T21:59:56.821Z,33.30
2023-02-05T22:02:25.054Z,22.10
2023-02-05T22:04:53.226Z,35.53
2023-02-05T22:07:21.372Z,23.93
2023-02-05T22:09:50.859Z,29.37
2023-02-05T22:12:18.990Z,17.33
2023-02-05T22:14:47.126Z,28.33
2023-02-05T22:17:15.287Z,21.80
2023-02-05T22:19:43.431Z,20.73
2023-02-05T22:22:11.554Z,34.13
2023-02-05T22:24:39.808Z,23.60
2023-02-05T22:27:09.476Z,25.30
2023-02-05T22:29:37.640Z,27.07
2023-02-05T22:32:05.832Z,44.17
2023-02-05T22:34:33.974Z,22.33
2023-02-05T22:37:02.111Z,25.07
2023-02-05T22:39:30.237Z,21.13
2023-02-05T22:41:58.515Z,35.37
2023-02-05T22:44:28.091Z,22.43
2023-02-05T22:46:56.252Z,24.83
2023-02-05T22:49:24.393Z,29.40
2023-02-05T22:51:53.980Z,41.60
2023-02-05T22:54:22.153Z,34.20
2023-02-05T22:56:50.302Z,28.40
2023-02-05T22:59:18.450Z,28.83
2023-02-05T23:01:48.102Z,23.67
2023-02-05T23:04:16.234Z,27.33
2023-02-05T23:06:45.100Z,25.93
2023-02-05T23:09:15.257Z,40.10
2023-02-05T23:11:43.827Z,33.73
2023-02-05T23:14:12.602Z,21.60
2023-02-05T23:16:41.541Z,29.53
2023-02-05T23:19:12.304Z,30.17
2023-02-05T23:21:41.161Z,20.93
2023-02-05T23:24:09.655Z,23.70
2023-02-05T23:26:39.920Z,36.30
2023-02-05T23:29:08.284Z,22.77
2023-02-05T23:31:36.651Z,24.10
2023-02-05T23:34:05.061Z,25.27
2023-02-05T23:36:34.676Z,33.57
2023-02-05T23:39:02.871Z,28.27
2023-02-05T23:41:37.475Z,26.17
2023-02-05T23:44:06.730Z,29.73
2023-02-05T23:46:34.918Z,27.40
2023-02-05T23:49:03.076Z,22.80
2023-02-05T23:51:31.218Z,29.23
2023-02-05T23:54:00.711Z,30.17
2023-02-05T23:56:29.448Z,18.30
2023-02-05T23:58:57.661Z,27.53
